Time;durP1;ratioP1;P1;durP2;ratioP2;P2;SDS_P1;SDS_P2;PMS_P1;PMS_P2;Temp;Humidity;BMP_temperature;BMP_pressure;BME280_temperature;BME280_humidity;BME280_pressure;Samples;Min_cycle;Max_cycle;Signal;HPM_P1;HPM_P2
2023/04/03 00:00:45;;;;;;;2.25;1.63;;;;;;;-143.48;64.36;118439.88;5055805;28;20463;-39
2023/04/03 00:03:10;;;;;;;4.55;1.85;;;;;;;-143.48;64.46;118439.88;5055786;28;20375;-39
2023/04/03 00:05:35;;;;;;;5.88;1.88;;;;;;;-143.48;64.94;118439.88;5055446;28;20021;-39
2023/04/03 00:08:01;;;;;;;4.47;1.75;;;;;;;-143.48;64.94;118439.88;5055434;28;20033;-39
2023/04/03 00:10:28;;;;;;;4.63;1.92;;;;;;;-143.48;65.39;118439.88;5055945;28;20025;-38
2023/04/03 00:12:54;;;;;;;2.92;1.60;;;;;;;-143.48;65.56;118439.88;5055401;28;20027;-38
2023/04/03 00:15:19;;;;;;;4.03;1.67;;;;;;;-143.48;66.08;118439.88;5055515;28;20029;-39
2023/04/03 00:17:45;;;;;;;2.70;1.63;;;;;;;-143.48;66.29;118439.88;5055755;28;20099;-38
2023/04/03 00:20:10;;;;;;;3.38;1.60;;;;;;;-143.48;66.32;118439.88;5054991;28;20025;-38
2023/04/03 00:22:36;;;;;;;3.83;1.75;;;;;;;-143.48;66.27;118439.88;5055113;28;20025;-39
2023/04/03 00:25:01;;;;;;;3.70;1.75;;;;;;;-143.48;67.30;118439.88;5055125;28;20053;-39
2023/04/03 00:27:26;;;;;;;2.78;1.70;;;;;;;-143.48;66.82;118439.88;5055329;28;20013;-39
2023/04/03 00:29:52;;;;;;;3.55;1.58;;;;;;;-143.48;67.24;118439.88;5055022;28;20048;-39
2023/04/03 00:32:18;;;;;;;2.85;1.70;;;;;;;-143.48;66.51;118439.88;5055208;28;20066;-39
2023/04/03 00:34:43;;;;;;;3.67;1.50;;;;;;;-143.48;66.63;118439.88;5054934;28;20035;-38
2023/04/03 00:37:09;;;;;;;5.55;1.80;;;;;;;-143.48;68.34;118439.88;5054679;28;20025;-39
2023/04/03 00:39:34;;;;;;;3.92;1.73;;;;;;;-143.48;67.58;118439.88;5055038;28;20028;-39
2023/04/03 00:42:00;;;;;;;3.00;1.50;;;;;;;-143.48;67.96;118439.88;5054964;28;20025;-39
2023/04/03 00:44:28;;;;;;;5.55;1.95;;;;;;;-143.48;68.21;118439.88;5055014;28;20475;-39
2023/04/03 00:46:53;;;;;;;4.70;1.90;;;;;;;-143.48;68.75;118439.88;5054676;28;20056;-38
2023/04/03 00:49:19;;;;;;;4.35;1.70;;;;;;;-143.48;69.01;118439.88;5054663;28;20055;-39
2023/04/03 00:51:45;;;;;;;6.22;1.83;;;;;;;-143.48;69.23;118439.88;5054569;28;20032;-39
2023/04/03 00:54:11;;;;;;;4.70;2.22;;;;;;;-143.48;69.36;118439.88;5054472;28;20074;-38
2023/04/03 00:56:37;;;;;;;4.05;1.70;;;;;;;-143.48;70.07;118439.88;5037100;28;20047;-38
2023/04/03 00:59:11;;;;;;;8.35;1.95;;;;;;;-143.48;69.66;118439.88;5054295;28;20021;-38
2023/04/03 01:01:37;;;;;;;7.38;2.03;;;;;;;-143.48;69.60;118439.88;5054412;28;20135;-39
2023/04/03 01:04:03;;;;;;;3.00;1.60;;;;;;;-143.48;69.12;118439.88;5036789;28;20479;-38
2023/04/03 01:06:36;;;;;;;4.80;1.90;;;;;;;-143.48;68.81;118439.88;5054594;28;20545;-38
2023/04/03 01:09:04;;;;;;;4.30;1.63;;;;;;;-143.48;69.71;118439.88;5054840;28;20029;-38
2023/04/03 01:11:29;;;;;;;5.80;1.90;;;;;;;-143.48;69.85;118439.88;5036345;28;20104;-38
2023/04/03 01:13:55;;;;;;;7.68;1.55;;;;;;;-143.48;69.82;118439.88;5054728;28;20515;-38
2023/04/03 01:16:20;;;;;;;6.80;1.90;;;;;;;-143.48;69.92;118439.88;5054677;28;20026;-38
2023/04/03 01:18:46;;;;;;;3.97;1.70;;;;;;;-143.48;70.57;118439.88;5054064;28;20353;-38
2023/04/03 01:21:40;;;;;;;3.78;1.75;;;;;;;-143.48;70.49;118439.88;5053943;28;20094;-38
2023/04/03 01:24:14;;;;;;;;;;;;;;;-143.48;70.39;118439.88;5054688;28;20126;-38
2023/04/03 01:26:40;;;;;;;5.65;2.00;;;;;;;-143.48;70.68;118439.88;5053919;28;19916;-40
2023/04/03 01:29:05;;;;;;;6.70;1.88;;;;;;;-143.48;71.18;118439.88;5053910;28;20016;-38
2023/04/03 01:31:46;;;;;;;5.38;2.03;;;;;;;-143.48;70.56;118439.88;5053884;28;20098;-38
2023/04/03 01:34:11;;;;;;;4.95;1.80;;;;;;;-143.48;71.63;118439.88;5054411;28;20107;-39
2023/04/03 01:36:36;;;;;;;4.25;1.70;;;;;;;-143.48;71.13;118439.88;5054052;28;20048;-38
2023/04/03 01:39:02;;;;;;;4.40;1.80;;;;;;;-143.48;71.26;118439.88;5053635;28;20040;-38
2023/04/03 01:41:28;;;;;;;4.78;1.98;;;;;;;-143.48;71.53;118439.88;5054183;28;20025;-38
2023/04/03 01:43:54;;;;;;;4.30;1.73;;;;;;;-143.48;72.37;118439.88;5053680;28;20031;-38
2023/04/03 01:46:20;;;;;;;3.50;1.77;;;;;;;-143.48;72.19;118439.88;5053865;28;20021;-39
2023/04/03 01:48:46;;;;;;;7.75;2.00;;;;;;;-143.48;72.30;118439.88;5052867;28;20168;-39
2023/04/03 01:51:11;;;;;;;8.82;2.28;;;;;;;-143.48;72.23;118439.88;5054132;28;20025;-38
2023/04/03 01:53:37;;;;;;;4.15;2.00;;;;;;;-143.48;71.50;118439.88;5054044;28;20090;-38
2023/04/03 01:56:02;;;;;;;3.70;1.90;;;;;;;-143.48;71.68;118439.88;5053786;28;20074;-38
2023/04/03 01:58:28;;;;;;;7.05;2.13;;;;;;;-143.48;72.21;118439.88;5053660;28;20527;-38
2023/04/03 02:00:54;;;;;;;5.05;2.17;;;;;;;-143.48;72.61;118439.88;5053482;28;20104;-38
2023/04/03 02:03:20;;;;;;;4.05;1.90;;;;;;;-143.48;72.24;118439.88;5053292;28;20029;-39
2023/04/03 02:05:45;;;;;;;4.88;1.98;;;;;;;-143.48;72.85;118439.88;5053657;28;20025;-39
2023/04/03 02:08:11;;;;;;;6.78;2.03;;;;;;;-143.48;73.54;118439.88;5053352;28;20135;-38
2023/04/03 02:10:36;;;;;;;4.53;1.92;;;;;;;-143.48;73.23;118439.88;5053278;28;20029;-38
2023/04/03 02:13:02;;;;;;;5.53;2.13;;;;;;;-143.48;73.40;118439.88;5053579;28;20021;-38
2023/04/03 02:15:27;;;;;;;8.27;2.03;;;;;;;-143.48;72.90;118439.88;5051944;28;20021;-38
2023/04/03 02:17:52;;;;;;;4.65;2.20;;;;;;;-143.48;73.69;118439.88;5052328;28;20090;-38
2023/04/03 02:20:18;;;;;;;4.80;1.80;;;;;;;-143.48;73.35;118439.88;5053323;28;20043;-39
2023/04/03 02:22:43;;;;;;;6.15;2.25;;;;;;;-143.48;73.59;118439.88;5052117;28;20029;-39
2023/04/03 02:25:10;;;;;;;5.95;2.10;;;;;;;-143.48;73.65;118439.88;5053133;28;20378;-39
2023/04/03 02:27:35;;;;;;;5.53;2.47;;;;;;;-143.48;74.63;118439.88;5053379;28;20527;-37
2023/04/03 02:30:01;;;;;;;5.85;2.03;;;;;;;-143.48;74.41;118439.88;5035336;28;20112;-38
2023/04/03 02:32:26;;;;;;;4.88;2.22;;;;;;;-143.48;75.01;118439.88;5035593;28;20060;-38
2023/04/03 02:34:51;;;;;;;4.28;2.10;;;;;;;-143.48;74.43;118439.88;5053101;28;20021;-39
2023/04/03 02:37:17;;;;;;;5.95;2.05;;;;;;;-143.48;75.33;118439.88;5053374;28;20021;-38
2023/04/03 02:39:42;;;;;;;4.93;2.08;;;;;;;-143.48;75.37;118439.88;5053299;28;20538;-38
2023/04/03 02:42:08;;;;;;;4.53;1.83;;;;;;;-143.48;75.65;118439.88;5053243;28;20028;-38
2023/04/03 02:44:33;;;;;;;7.05;2.20;;;;;;;-143.48;75.30;118439.88;5053372;28;20021;-37
2023/04/03 02:46:58;;;;;;;4.70;2.00;;;;;;;-143.48;75.58;118439.88;5053020;28;20513;-38
2023/04/03 02:49:23;;;;;;;4.38;2.13;;;;;;;-143.48;75.72;118439.88;5053018;28;20032;-39
2023/04/03 02:51:50;;;;;;;4.43;2.03;;;;;;;-143.48;76.59;118439.88;5053431;28;20025;-38
2023/04/03 02:54:16;;;;;;;4.32;1.95;;;;;;;-143.48;75.88;118439.88;5053668;28;20031;-37
2023/04/03 02:56:41;;;;;;;8.35;2.60;;;;;;;-143.48;76.75;118439.88;5053187;28;20111;-37
2023/04/03 02:59:06;;;;;;;6.45;2.30;;;;;;;-143.48;77.05;118439.88;5052730;28;20091;-37
2023/04/03 03:01:32;;;;;;;7.63;2.33;;;;;;;-143.48;77.13;118439.88;5056255;28;20025;-38
2023/04/03 03:03:59;;;;;;;4.57;2.20;;;;;;;-143.48;77.18;118439.88;5056927;28;20028;-38
2023/04/03 03:06:25;;;;;;;7.68;2.50;;;;;;;-143.48;77.06;118439.88;5057161;28;20025;-38
2023/04/03 03:08:50;;;;;;;6.50;2.28;;;;;;;-143.48;77.37;118439.88;5056940;28;20025;-38
2023/04/03 03:11:16;;;;;;;6.65;2.28;;;;;;;-143.48;77.73;118439.88;5056832;28;20404;-37
2023/04/03 03:13:41;;;;;;;4.60;2.05;;;;;;;-143.48;78.27;118439.88;5056765;28;20149;-37
2023/04/03 03:16:07;;;;;;;8.02;2.35;;;;;;;-143.48;77.89;118439.88;5056914;28;20119;-37
2023/04/03 03:18:33;;;;;;;5.70;2.15;;;;;;;-143.48;78.05;118439.88;5056305;28;20033;-37
2023/04/03 03:21:00;;;;;;;7.25;2.70;;;;;;;-143.48;78.26;118439.88;5056737;28;20044;-37
2023/04/03 03:23:27;;;;;;;8.10;2.63;;;;;;;-143.48;78.61;118439.88;5056254;28;20060;-38
2023/04/03 03:26:04;;;;;;;7.32;2.35;;;;;;;-143.48;78.61;118439.88;5056175;28;20467;-37
2023/04/03 03:28:30;;;;;;;5.97;2.53;;;;;;;-143.48;78.52;118439.88;5056798;28;20460;-38
2023/04/03 03:30:56;;;;;;;6.93;2.20;;;;;;;-143.48;79.53;118439.88;5056191;28;20078;-38
2023/04/03 03:33:21;;;;;;;7.18;2.35;;;;;;;-143.48;79.38;118439.88;5056411;28;20104;-38
2023/04/03 03:35:47;;;;;;;7.45;2.70;;;;;;;-143.48;79.38;118439.88;5056340;28;20099;-38
2023/04/03 03:38:12;;;;;;;6.38;2.20;;;;;;;-143.48;79.47;118439.88;5055947;28;20060;-37
2023/04/03 03:40:37;;;;;;;5.07;2.22;;;;;;;-143.48;80.65;118439.88;5056047;28;20460;-37
2023/04/03 03:43:03;;;;;;;5.47;2.25;;;;;;;-143.48;80.35;118439.88;5056544;28;20367;-39
2023/04/03 03:45:28;;;;;;;7.15;2.42;;;;;;;-143.48;80.29;118439.88;5055839;28;20589;-37
2023/04/03 03:47:54;;;;;;;12.10;2.50;;;;;;;-143.48;80.05;118439.88;5055750;28;20115;-37
2023/04/03 03:50:19;;;;;;;5.22;2.28;;;;;;;-143.48;80.29;118439.88;5056033;28;20066;-38
2023/04/03 03:52:45;;;;;;;8.38;2.38;;;;;;;-143.48;80.50;118439.88;5055733;28;20035;-38
2023/04/03 03:55:11;;;;;;;6.13;2.33;;;;;;;-143.48;80.61;118439.88;5055955;28;20533;-38
2023/04/03 03:57:36;;;;;;;7.93;2.60;;;;;;;-143.48;80.87;118439.88;5055652;28;20108;-38
2023/04/03 04:00:03;;;;;;;7.57;2.50;;;;;;;-143.48;80.97;118439.88;5055687;28;20028;-37
2023/04/03 04:02:29;;;;;;;5.57;2.33;;;;;;;-143.48;81.58;118439.88;5055574;28;20025;-37
2023/04/03 04:04:54;;;;;;;5.75;2.30;;;;;;;-143.48;82.02;118439.88;5055539;28;20036;-37
2023/04/03 04:07:20;;;;;;;4.57;2.15;;;;;;;-143.48;81.65;118439.88;5055658;28;20028;-39
2023/04/03 04:09:45;;;;;;;9.20;3.00;;;;;;;-143.48;82.13;118439.88;5055422;28;20017;-38
2023/04/03 04:12:10;;;;;;;7.00;2.50;;;;;;;-143.48;82.27;118439.88;5054735;28;20025;-38
2023/04/03 04:14:36;;;;;;;7.97;2.45;;;;;;;-143.48;82.08;118439.88;5055917;28;20047;-38
2023/04/03 04:17:02;;;;;;;9.65;2.67;;;;;;;-143.48;82.57;118439.88;5055305;28;20044;-38
2023/04/03 04:19:27;;;;;;;7.70;2.58;;;;;;;-143.48;82.31;118439.88;5055399;28;20075;-38
2023/04/03 04:21:53;;;;;;;10.57;2.65;;;;;;;-143.48;82.23;118439.88;5055222;28;20057;-38
2023/04/03 04:24:18;;;;;;;6.60;2.67;;;;;;;-143.48;82.59;118439.88;5055518;28;20091;-39
2023/04/03 04:26:43;;;;;;;6.25;2.67;;;;;;;-143.48;82.62;118439.88;5055054;28;20100;-38
2023/04/03 04:29:10;;;;;;;7.15;2.38;;;;;;;-143.48;82.31;118439.88;5055659;28;20410;-38
2023/04/03 04:31:35;;;;;;;5.47;2.33;;;;;;;-143.48;82.72;118439.88;5055589;28;20411;-38
2023/04/03 04:34:00;;;;;;;8.80;2.92;;;;;;;-143.48;82.85;118439.88;5054966;28;20021;-38
2023/04/03 04:36:26;;;;;;;5.80;2.60;;;;;;;-143.48;83.09;118439.88;5054870;28;20083;-38
2023/04/03 04:38:52;;;;;;;8.02;2.30;;;;;;;-143.48;83.54;118439.88;5055039;28;20021;-38
2023/04/03 04:41:22;;;;;;;8.52;2.63;;;;;;;-143.48;83.54;118439.88;5055041;28;20513;-38
2023/04/03 04:43:48;;;;;;;6.95;2.67;;;;;;;-143.48;83.62;118439.88;5037450;28;20028;-38
2023/04/03 04:46:13;;;;;;;8.30;2.70;;;;;;;-143.48;83.14;118439.88;5055030;28;20463;-38
2023/04/03 04:48:38;;;;;;;10.07;3.70;;;;;;;-143.48;83.83;118439.88;5054709;28;20028;-38
2023/04/03 04:51:04;;;;;;;5.07;2.33;;;;;;;-143.48;83.84;118439.88;5054636;28;20112;-39
2023/04/03 04:53:30;;;;;;;12.02;2.90;;;;;;;-143.48;83.77;118439.88;5054560;28;20471;-38
2023/04/03 04:55:55;;;;;;;5.82;2.50;;;;;;;-143.48;84.04;118439.88;5055056;28;20028;-38
2023/04/03 04:58:21;;;;;;;9.60;2.70;;;;;;;-143.48;83.95;118439.88;5055026;28;20052;-38
2023/04/03 05:00:46;;;;;;;7.50;2.42;;;;;;;-143.48;83.50;118439.88;5054687;28;20098;-38
2023/04/03 05:03:12;;;;;;;8.73;2.65;;;;;;;-143.48;83.58;118439.88;5054315;28;20017;-38
2023/04/03 05:05:37;;;;;;;6.80;2.72;;;;;;;-143.48;83.83;118439.88;5054227;28;20025;-38
2023/04/03 05:08:04;;;;;;;6.50;2.95;;;;;;;-143.48;84.19;118439.88;5054029;28;20473;-38
2023/04/03 05:10:29;;;;;;;8.27;2.83;;;;;;;-143.48;84.58;118439.88;5054334;28;20096;-38
2023/04/03 05:12:55;;;;;;;6.63;2.67;;;;;;;-143.48;84.14;118439.88;5053982;28;20545;-38
2023/04/03 05:15:20;;;;;;;7.80;2.63;;;;;;;-143.48;84.13;118439.88;5054445;28;20029;-38
2023/04/03 05:17:46;;;;;;;6.38;2.70;;;;;;;-143.48;84.25;118439.88;5054876;28;20035;-38
2023/04/03 05:20:12;;;;;;;6.95;2.63;;;;;;;-143.48;83.72;118439.88;5053638;28;20367;-38
2023/04/03 05:22:37;;;;;;;6.93;2.80;;;;;;;-143.48;83.94;118439.88;5053782;28;20028;-38
2023/04/03 05:25:03;;;;;;;7.43;2.65;;;;;;;-143.48;84.06;118439.88;5053759;28;20467;-38
2023/04/03 05:27:29;;;;;;;6.45;2.55;;;;;;;-143.48;84.42;118439.88;5053994;28;20029;-39
2023/04/03 05:29:55;;;;;;;6.38;3.03;;;;;;;-143.48;84.05;118439.88;5053960;28;20070;-38
2023/04/03 05:32:21;;;;;;;8.38;2.78;;;;;;;-143.48;83.72;118439.88;5054272;28;20025;-38
2023/04/03 05:34:46;;;;;;;6.63;2.70;;;;;;;-143.48;83.62;118439.88;5053661;28;20487;-38
2023/04/03 05:37:11;;;;;;;9.30;2.65;;;;;;;-143.48;83.46;118439.88;5053914;28;20032;-39
2023/04/03 05:39:40;;;;;;;7.68;2.88;;;;;;;-143.48;82.86;118439.88;5053454;28;20415;-38
2023/04/03 05:42:05;;;;;;;10.38;3.33;;;;;;;-143.48;81.72;118439.88;5053558;28;20037;-38
2023/04/03 05:44:30;;;;;;;9.00;2.92;;;;;;;-143.48;82.38;118439.88;5054058;28;20048;-38
2023/04/03 05:46:56;;;;;;;8.00;3.35;;;;;;;-143.48;82.85;118439.88;5053493;28;20028;-38
2023/04/03 05:49:21;;;;;;;10.45;3.05;;;;;;;-143.48;83.08;118439.88;5035610;28;20048;-38
2023/04/03 05:51:46;;;;;;;9.25;3.17;;;;;;;-143.48;83.17;118439.88;5053646;28;20090;-38
2023/04/03 05:54:17;;;;;;;7.30;2.70;;;;;;;-143.48;83.44;118439.88;5053362;28;20044;-38
2023/04/03 05:56:43;;;;;;;7.18;2.83;;;;;;;-143.48;82.86;118439.88;5053686;28;20400;-38
2023/04/03 05:59:09;;;;;;;10.25;2.95;;;;;;;-143.48;83.05;118439.88;5053275;28;20098;-38
2023/04/03 06:01:34;;;;;;;7.30;2.92;;;;;;;-143.48;82.75;118439.88;5053507;28;20041;-38
2023/04/03 06:04:00;;;;;;;6.70;2.80;;;;;;;-143.48;82.15;118439.88;5053320;28;20064;-38
2023/04/03 06:06:25;;;;;;;6.28;2.70;;;;;;;-143.48;82.59;118439.88;5054434;28;20025;-38
2023/04/03 06:08:51;;;;;;;6.65;2.50;;;;;;;-143.48;82.23;118439.88;5053257;28;20479;-38
2023/04/03 06:11:16;;;;;;;9.80;3.05;;;;;;;-143.48;82.19;118439.88;5053205;28;20025;-38
2023/04/03 06:13:42;;;;;;;6.05;2.38;;;;;;;-143.48;81.75;118439.88;5053849;28;20061;-38
2023/04/03 06:16:11;;;;;;;7.82;3.10;;;;;;;-143.48;81.55;118439.88;5053226;28;20032;-38
2023/04/03 06:18:36;;;;;;;6.57;2.90;;;;;;;-143.48;81.84;118439.88;5052119;28;20079;-38
2023/04/03 06:21:03;;;;;;;7.60;2.38;;;;;;;-143.48;80.97;118439.88;5052647;28;20088;-38
2023/04/03 06:23:28;;;;;;;7.32;2.63;;;;;;;-143.48;80.28;118439.88;5052610;28;20045;-38
2023/04/03 06:25:54;;;;;;;7.50;2.78;;;;;;;-143.48;80.29;118439.88;5053512;28;20070;-38
2023/04/03 06:28:20;;;;;;;7.80;2.60;;;;;;;-143.48;80.05;118439.88;5051258;28;20013;-38
2023/04/03 06:30:45;;;;;;;8.55;2.67;;;;;;;-143.48;80.12;118439.88;5051198;28;20104;-38
2023/04/03 06:33:10;;;;;;;9.48;2.97;;;;;;;-143.48;79.56;118439.88;5050884;28;20102;-38
2023/04/03 06:35:38;;;;;;;8.75;2.90;;;;;;;-143.48;80.52;118439.88;5052909;28;20091;-39
2023/04/03 06:38:09;;;;;;;8.18;2.90;;;;;;;-143.48;80.05;118439.88;5055201;28;20056;-38
2023/04/03 06:40:34;;;;;;;8.20;2.67;;;;;;;-143.48;80.03;118439.88;5055366;28;20027;-38
2023/04/03 06:43:00;;;;;;;7.93;2.90;;;;;;;-143.48;79.43;118439.88;5056752;28;20020;-38
2023/04/03 06:45:25;;;;;;;9.55;2.80;;;;;;;-143.48;79.50;118439.88;5056811;28;20485;-38
2023/04/03 06:47:51;;;;;;;7.63;2.60;;;;;;;-143.48;79.66;118439.88;5057057;28;20027;-38
2023/04/03 06:50:16;;;;;;;7.63;2.92;;;;;;;-143.48;78.96;118439.88;5057028;28;20079;-38
2023/04/03 06:52:41;;;;;;;10.52;2.97;;;;;;;-143.48;79.07;118439.88;5057322;28;20349;-39
2023/04/03 06:55:09;;;;;;;10.70;2.97;;;;;;;-143.48;78.93;118439.88;5056547;28;20028;-38
2023/04/03 06:57:34;;;;;;;7.65;2.80;;;;;;;-143.48;78.00;118439.88;5056561;28;20028;-40
2023/04/03 07:00:00;;;;;;;6.50;2.72;;;;;;;-143.48;78.17;118439.88;5056688;28;20104;-39
2023/04/03 07:02:25;;;;;;;5.93;2.80;;;;;;;-143.48;77.82;118439.88;5056753;28;20074;-38
2023/04/03 07:04:50;;;;;;;5.05;2.60;;;;;;;-143.48;76.56;118439.88;5056346;28;20032;-38
2023/04/03 07:07:17;;;;;;;6.55;2.50;;;;;;;-143.48;69.78;118439.88;5057699;28;20051;-39
2023/04/03 07:09:42;;;;;;;5.85;2.72;;;;;;;-143.48;57.21;118439.88;5056497;28;20104;-39
2023/04/03 07:12:08;;;;;;;11.18;2.90;;;;;;;-143.48;53.95;118439.88;5056461;28;20116;-39
2023/04/03 07:14:33;;;;;;;8.20;2.75;;;;;;;-143.48;51.50;118439.88;5056178;28;20025;-39
2023/04/03 07:16:58;;;;;;;7.15;2.50;;;;;;;-143.48;49.72;118439.88;5056960;28;20029;-39
2023/04/03 07:19:27;;;;;;;12.27;2.92;;;;;;;-143.48;45.55;118439.88;5056275;28;20040;-39
2023/04/03 07:21:52;;;;;;;7.22;2.35;;;;;;;-143.48;47.19;118439.88;5056117;28;20041;-39
2023/04/03 07:24:17;;;;;;;6.53;2.53;;;;;;;-143.48;47.14;118439.88;5056000;28;20082;-39
2023/04/03 07:26:44;;;;;;;7.80;2.50;;;;;;;-143.48;43.15;118439.88;5056143;28;20021;-39
2023/04/03 07:29:10;;;;;;;5.82;2.40;;;;;;;-143.48;43.94;118439.88;5056645;28;20029;-39
2023/04/03 07:31:36;;;;;;;7.38;2.58;;;;;;;-143.48;42.86;118439.88;5038068;28;20380;-39
2023/04/03 07:34:03;;;;;;;7.00;2.50;;;;;;;-143.48;44.43;118439.88;5056239;28;20029;-40
2023/04/03 07:36:29;;;;;;;6.38;2.60;;;;;;;-143.48;43.76;118439.88;5037789;28;20025;-40
2023/04/03 07:38:54;;;;;;;5.65;2.40;;;;;;;-143.48;44.15;118439.88;5037885;28;20573;-42
2023/04/03 07:41:22;;;;;;;6.30;2.60;;;;;;;-143.48;43.84;118439.88;5056079;28;20021;-39
2023/04/03 07:43:49;;;;;;;5.45;2.25;;;;;;;-143.48;43.25;118439.88;5056004;28;20033;-40
2023/04/03 07:46:15;;;;;;;6.28;2.60;;;;;;;-143.48;42.68;118439.88;5055131;28;20071;-40
2023/04/03 07:48:41;;;;;;;4.78;2.38;;;;;;;-143.48;43.10;118439.88;5055513;28;20463;-40
2023/04/03 07:51:06;;;;;;;8.32;2.53;;;;;;;-143.48;41.04;118439.88;5055800;28;20078;-41
2023/04/03 07:53:32;;;;;;;6.93;2.55;;;;;;;-143.48;40.19;118439.88;5055814;28;20029;-40
2023/04/03 07:55:58;;;;;;;7.38;2.40;;;;;;;-143.48;40.11;118439.88;5056279;28;20025;-43
2023/04/03 07:58:27;;;;;;;5.32;2.13;;;;;;;-143.48;40.01;118439.88;5055651;28;20025;-40
2023/04/03 08:00:53;;;;;;;5.75;2.15;;;;;;;-143.48;40.43;118439.88;5037315;28;20028;-40
2023/04/03 08:03:22;;;;;;;4.65;2.20;;;;;;;-143.48;38.08;118439.88;5055465;28;20024;-41
2023/04/03 08:05:49;;;;;;;6.85;2.20;;;;;;;-143.48;37.63;118439.88;5056138;28;20090;-40
2023/04/03 08:08:17;;;;;;;4.90;2.20;;;;;;;-143.48;38.05;118439.88;5055715;28;20399;-40
2023/04/03 08:10:43;;;;;;;6.03;2.17;;;;;;;-143.48;38.12;118439.88;5055961;28;20047;-39
2023/04/03 08:13:08;;;;;;;8.88;2.50;;;;;;;-143.48;38.25;118439.88;5055838;28;20071;-40
2023/04/03 08:15:34;;;;;;;6.40;2.30;;;;;;;-143.48;36.40;118439.88;5055599;28;20024;-40
2023/04/03 08:18:00;;;;;;;4.93;2.33;;;;;;;-143.48;37.91;118439.88;5055265;28;20044;-40
2023/04/03 08:20:27;;;;;;;5.50;2.13;;;;;;;-143.48;35.48;118439.88;5055131;28;20021;-41
2023/04/03 08:22:52;;;;;;;4.47;2.00;;;;;;;-143.48;35.13;118439.88;5055242;28;20472;-40
2023/04/03 08:25:18;;;;;;;5.93;2.25;;;;;;;-143.48;34.89;118439.88;5054906;28;20036;-40
2023/04/03 08:27:44;;;;;;;7.28;1.90;;;;;;;-143.48;36.79;118439.88;5055487;28;20029;-40
2023/04/03 08:30:10;;;;;;;5.35;2.08;;;;;;;-143.48;34.54;118439.88;5054944;28;20091;-40
2023/04/03 08:32:36;;;;;;;6.82;2.17;;;;;;;-143.48;34.33;118439.88;5054909;28;20032;-40
2023/04/03 08:35:03;;;;;;;5.43;1.77;;;;;;;-143.48;34.93;118439.88;5054932;28;20021;-39
2023/04/03 08:37:29;;;;;;;5.53;2.00;;;;;;;-143.48;34.93;118439.88;5055315;28;20477;-39
2023/04/03 08:39:54;;;;;;;5.30;2.00;;;;;;;-143.48;34.95;118439.88;5067848;22;20053;-69
2023/04/03 08:42:38;;;;;;;4.70;1.98;;;;;;;-143.48;34.76;118439.88;5053123;28;20021;-69
2023/04/03 08:45:12;;;;;;;5.78;2.05;;;;;;;-143.48;33.83;118439.88;5052294;28;20025;-69
2023/04/03 08:47:42;;;;;;;5.22;2.00;;;;;;;-143.48;32.25;118439.88;5051251;28;20461;-68
2023/04/03 08:50:32;;;;;;;4.28;1.85;;;;;;;-143.48;33.21;118439.88;5032733;28;20459;-69
2023/04/03 08:52:59;;;;;;;5.60;1.67;;;;;;;-143.48;33.07;118439.88;5034155;28;20647;-69
2023/04/03 08:55:57;;;;;;;5.13;2.00;;;;;;;-143.48;31.91;118439.88;5033890;28;20469;-69
2023/04/03 08:58:27;;;;;;;4.25;1.58;;;;;;;-143.48;33.29;118439.88;4981377;28;20028;-69
2023/04/03 09:01:16;;;;;;;5.18;1.70;;;;;;;-143.48;32.43;118439.88;5053485;28;20028;-68
2023/04/03 09:03:41;;;;;;;3.58;1.52;;;;;;;-143.48;32.05;118439.88;5053460;28;20029;-68
2023/04/03 09:06:14;;;;;;;5.60;1.83;;;;;;;-143.48;32.85;118439.88;5035439;28;20031;-69
2023/04/03 09:08:45;;;;;;;;;;;;;;;-143.48;31.19;118439.88;5053986;28;20576;-69
2023/04/03 09:11:33;;;;;;;4.50;1.52;;;;;;;-143.48;32.92;118439.88;5034751;28;20390;-69
2023/04/03 09:14:13;;;;;;;2.90;1.48;;;;;;;-143.48;33.34;118439.88;5052130;28;20032;-69
2023/04/03 09:16:52;;;;;;;4.53;1.77;;;;;;;-143.48;32.69;118439.88;5035343;28;20025;-68
2023/04/03 09:19:51;;;;;;;4.18;1.60;;;;;;;-143.48;35.29;118439.88;5053068;28;20052;-68
2023/04/03 09:22:25;;;;;;;3.97;1.45;;;;;;;-143.48;34.31;118439.88;5051510;28;20100;-68
2023/04/03 09:25:01;;;;;;;3.13;1.55;;;;;;;-143.48;32.23;118439.88;5051733;28;20040;-68
2023/04/03 09:27:27;;;;;;;4.85;1.50;;;;;;;-143.48;32.12;118439.88;5033251;28;20025;-69
2023/04/03 09:29:57;;;;;;;5.70;1.63;;;;;;;-143.48;32.20;118439.88;5051072;28;20452;-69
2023/04/03 09:32:31;;;;;;;3.03;1.52;;;;;;;-143.48;32.60;118439.88;5033226;28;20037;-70
2023/04/03 09:35:01;;;;;;;3.08;1.27;;;;;;;-143.48;31.76;118439.88;5032910;28;20044;-69
2023/04/03 09:37:38;;;;;;;3.08;1.10;;;;;;;-143.48;32.74;118439.88;5035387;28;20476;-68
2023/04/03 09:40:05;;;;;;;3.13;1.20;;;;;;;-143.48;32.89;118439.88;5034816;28;20040;-68
2023/04/03 09:42:31;;;;;;;3.80;1.35;;;;;;;-143.48;32.27;118439.88;5053407;28;20024;-68
2023/04/03 09:45:03;;;;;;;3.30;1.35;;;;;;;-143.48;31.72;118439.88;5053135;28;20020;-70
2023/04/03 09:47:33;;;;;;;4.18;1.45;;;;;;;-143.48;31.68;118439.88;5052826;28;20071;-66
2023/04/03 09:50:18;;;;;;;2.50;1.23;;;;;;;-143.48;32.12;118439.88;5053167;28;20036;-69
2023/04/03 09:52:46;;;;;;;4.85;1.30;;;;;;;-143.48;31.25;118439.88;5034801;28;20032;-68
2023/04/03 09:55:17;;;;;;;3.00;1.20;;;;;;;-143.48;31.56;118439.88;5052910;28;20058;-67
2023/04/03 09:57:44;;;;;;;6.28;1.27;;;;;;;-143.48;31.94;118439.88;5052859;28;20035;-68
2023/04/03 10:00:39;;;;;;;3.00;1.23;;;;;;;-143.48;29.67;118439.88;5034614;28;20032;-69
2023/04/03 10:03:23;;;;;;;2.95;0.93;;;;;;;-143.48;30.59;118439.88;5052701;28;20055;-69
2023/04/03 10:05:50;;;;;;;2.28;1.00;;;;;;;-143.48;32.19;118439.88;5052665;28;20025;-69
2023/04/03 10:08:16;;;;;;;1.90;1.20;;;;;;;-143.48;30.60;118439.88;5052752;28;20105;-69
2023/04/03 10:10:44;;;;;;;2.53;1.00;;;;;;;-143.48;30.89;118439.88;5052102;28;20420;-69
2023/04/03 10:13:14;;;;;;;1.77;0.90;;;;;;;-143.48;29.69;118439.88;5034601;28;20021;-68
2023/04/03 10:15:44;;;;;;;2.60;1.05;;;;;;;-143.48;29.00;118439.88;5052283;28;20039;-69
2023/04/03 10:18:35;;;;;;;2.75;1.00;;;;;;;-143.48;30.99;118439.88;5052353;28;20025;-69
2023/04/03 10:21:07;;;;;;;5.03;1.10;;;;;;;-143.48;29.50;118439.88;5052579;28;20564;-69
2023/04/03 10:24:21;;;;;;;2.13;0.90;;;;;;;-143.48;29.86;118439.88;5052432;28;20017;-69
2023/04/03 10:26:57;;;;;;;1.67;0.90;;;;;;;-143.48;29.10;118439.88;4971738;28;20034;-68
2023/04/03 10:29:35;;;;;;;3.28;0.85;;;;;;;-143.48;28.82;118439.88;4971817;28;20230;-68
2023/04/03 10:32:15;;;;;;;2.15;0.90;;;;;;;-143.48;28.65;118439.88;5010092;28;20086;-69
2023/04/03 10:34:43;;;;;;;2.33;0.80;;;;;;;-143.48;27.86;118439.88;5033652;28;20024;-68
2023/04/03 10:37:29;;;;;;;1.00;0.68;;;;;;;-143.48;28.21;118439.88;5050273;28;20053;-69
2023/04/03 10:40:04;;;;;;;1.65;0.90;;;;;;;-143.48;28.31;118439.88;5050079;28;20037;-68
2023/04/03 10:43:02;;;;;;;2.38;0.90;;;;;;;-143.48;29.14;118439.88;5050284;28;20086;-70
2023/04/03 10:45:51;;;;;;;1.83;0.90;;;;;;;-143.48;28.06;118439.88;5031733;28;20120;-69
2023/04/03 10:48:49;;;;;;;2.30;0.88;;;;;;;-143.48;28.98;118439.88;5049699;28;20102;-66
2023/04/03 10:51:41;;;;;;;2.22;0.90;;;;;;;-143.48;29.23;118439.88;5020274;28;20029;-68
2023/04/03 10:54:20;;;;;;;3.10;1.10;;;;;;;-143.48;29.11;118439.88;5052034;28;20483;-69
2023/04/03 10:56:54;;;;;;;2.38;0.82;;;;;;;-143.48;28.79;118439.88;5033770;28;20025;-69
2023/04/03 10:59:32;;;;;;;4.07;1.20;;;;;;;-143.48;28.61;118439.88;5051940;28;20036;-70
2023/04/03 11:02:01;;;;;;;2.15;1.08;;;;;;;-143.48;28.95;118439.88;5052271;28;20021;-69
2023/04/03 11:04:31;;;;;;;3.38;1.10;;;;;;;-143.48;28.00;118439.88;5052302;28;20103;-69
2023/04/03 11:07:01;;;;;;;1.83;0.90;;;;;;;-143.48;28.16;118439.88;5052259;28;20476;-70
2023/04/03 11:09:40;;;;;;;2.03;0.88;;;;;;;-143.48;28.16;118439.88;5052184;28;20017;-69
2023/04/03 11:12:13;;;;;;;1.77;0.90;;;;;;;-143.48;28.81;118439.88;5052191;28;20029;-69
2023/04/03 11:14:39;;;;;;;3.83;0.80;;;;;;;-143.48;28.59;118439.88;5034383;28;20476;-68